Time;durP1;ratioP1;P1;durP2;ratioP2;P2;SDS_P1;SDS_P2;PMS_P1;PMS_P2;Temp;Humidity;BMP_temperature;BMP_pressure;BME280_temperature;BME280_humidity;BME280_pressure;Samples;Min_cycle;Max_cycle;Signal;HPM_P1;HPM_P2
2021/11/18 00:00:53;;;;;;;38.17;21.77;;;6.00;99.90;6.00;97500.00;;;;5042021;28;20235;-73
2021/11/18 00:03:42;;;;;;;32.50;20.13;;;6.00;99.90;5.90;97504.00;;;;5036678;28;20768;-73
2021/11/18 00:06:31;;;;;;;34.00;21.03;;;6.00;99.90;5.70;97504.00;;;;5046371;28;20208;-73
2021/11/18 00:09:23;;;;;;;34.73;20.90;;;6.00;99.90;5.70;97511.00;;;;5046269;28;20200;-73
2021/11/18 00:12:12;;;;;;;36.33;19.87;;;6.00;99.90;5.80;97510.00;;;;5035241;28;20220;-73
2021/11/18 00:15:01;;;;;;;36.03;21.73;;;6.00;99.90;5.80;97510.00;;;;5043187;28;20195;-73
2021/11/18 00:17:50;;;;;;;32.00;21.70;;;6.00;99.90;5.80;97511.00;;;;5034173;28;20206;-73
2021/11/18 00:20:43;;;;;;;36.27;20.97;;;5.90;99.90;5.90;97523.00;;;;5037591;28;20291;-73
2021/11/18 00:23:36;;;;;;;33.30;23.40;;;5.90;99.90;6.00;97513.00;;;;5035133;28;20201;-73
2021/11/18 00:26:28;;;;;;;35.80;22.50;;;6.00;99.90;6.00;97519.00;;;;5031969;28;20212;-73
2021/11/18 00:29:17;;;;;;;38.43;21.53;;;6.00;99.90;6.10;97531.00;;;;5032779;28;20193;-73
2021/11/18 00:32:06;;;;;;;34.63;19.80;;;6.00;99.90;6.10;97534.00;;;;5040347;28;20216;-73
2021/11/18 00:34:55;;;;;;;37.30;22.37;;;6.00;99.90;6.10;97535.00;;;;5026775;28;20205;-73
2021/11/18 00:37:45;;;;;;;37.87;23.13;;;6.10;99.90;6.10;97527.00;;;;5044972;28;20205;-73
2021/11/18 00:40:38;;;;;;;32.43;21.90;;;6.10;99.90;6.00;97526.00;;;;5038975;28;20235;-74
2021/11/18 00:43:29;;;;;;;38.83;21.00;;;6.10;99.90;5.90;97520.00;;;;5046944;28;20679;-74
2021/11/18 00:46:18;;;;;;;38.37;21.13;;;6.10;99.90;6.00;97529.00;;;;5041887;28;20224;-73
2021/11/18 00:49:09;;;;;;;36.00;19.67;;;6.10;99.90;6.00;97530.00;;;;5042263;28;20193;-74
2021/11/18 00:51:59;;;;;;;31.93;20.10;;;6.10;99.90;6.00;97536.00;;;;5046610;28;20239;-74
2021/11/18 00:54:49;;;;;;;40.30;22.57;;;6.10;99.90;6.10;97533.00;;;;5037984;28;20212;-74
2021/11/18 00:57:38;;;;;;;38.57;21.90;;;6.10;99.90;6.00;97545.00;;;;5034705;28;20248;-74
2021/11/18 01:00:31;;;;;;;36.50;22.50;;;6.10;99.90;6.10;97545.00;;;;5045353;28;20228;-74
2021/11/18 01:03:22;;;;;;;32.97;22.27;;;6.10;99.90;5.90;97546.00;;;;5039447;28;20699;-73
2021/11/18 01:06:11;;;;;;;32.87;20.97;;;6.10;99.90;5.90;97546.00;;;;5045056;28;20713;-75
2021/11/18 01:09:00;;;;;;;31.33;20.00;;;6.00;99.90;5.90;97542.00;;;;5027747;28;20207;-74
2021/11/18 01:11:49;;;;;;;32.70;19.77;;;6.00;99.90;5.90;97553.00;;;;5034597;28;20703;-74
2021/11/18 01:14:39;;;;;;;34.63;20.27;;;6.00;99.90;5.90;97549.00;;;;5044573;28;20244;-74
2021/11/18 01:17:29;;;;;;;28.97;18.73;;;6.00;99.90;5.90;97557.00;;;;5030016;28;20194;-74
2021/11/18 01:20:23;;;;;;;31.83;19.73;;;6.00;99.90;5.90;97547.00;;;;5033535;28;20255;-73
2021/11/18 01:23:15;;;;;;;36.27;22.70;;;6.00;99.90;5.80;97549.00;;;;5042124;28;20582;-74
2021/11/18 01:26:06;;;;;;;33.03;20.60;;;5.90;99.90;5.80;97556.00;;;;5045496;28;20197;-74
2021/11/18 01:28:55;;;;;;;36.60;20.13;;;5.90;99.90;5.70;97552.00;;;;5037891;28;20582;-74
2021/11/18 01:31:44;;;;;;;34.00;21.67;;;5.90;99.90;5.60;97551.00;;;;5037032;28;20243;-74
2021/11/18 01:34:34;;;;;;;35.57;21.53;;;5.80;99.90;5.60;97551.00;;;;5039883;28;20213;-74
2021/11/18 01:37:23;;;;;;;44.80;23.93;;;5.80;99.90;5.50;97552.00;;;;5039441;28;20231;-73
2021/11/18 01:40:15;;;;;;;41.00;22.87;;;5.80;99.90;5.40;97535.00;;;;5043902;28;20585;-74
2021/11/18 01:43:09;;;;;;;32.47;20.57;;;5.70;99.90;5.40;97540.00;;;;5027740;28;20208;-73
2021/11/18 01:45:58;;;;;;;34.40;21.93;;;5.70;99.90;5.30;97537.00;;;;5036910;28;20213;-73
2021/11/18 01:48:48;;;;;;;40.10;22.07;;;5.60;99.90;5.20;97535.00;;;;5038536;28;20186;-73
2021/11/18 01:51:44;;;;;;;36.77;20.63;;;5.50;99.90;5.10;97545.00;;;;5034229;28;20228;-73
2021/11/18 01:54:36;;;;;;;38.27;21.73;;;5.50;99.90;5.10;97544.00;;;;5034707;28;20572;-73
2021/11/18 01:57:30;;;;;;;38.70;21.00;;;5.40;99.90;5.20;97543.00;;;;5041981;28;20227;-73
2021/11/18 02:00:25;;;;;;;33.43;19.30;;;5.40;99.90;5.20;97555.00;;;;5045436;28;20196;-73
2021/11/18 02:03:14;;;;;;;46.27;24.40;;;5.40;99.90;5.20;97546.00;;;;5037081;28;20279;-73
2021/11/18 02:06:09;;;;;;;39.90;24.13;;;5.40;99.90;5.10;97550.00;;;;5039987;28;20201;-73
2021/11/18 02:08:59;;;;;;;41.60;23.07;;;5.40;99.90;4.90;97555.00;;;;5044262;28;20204;-73
2021/11/18 02:11:53;;;;;;;40.90;23.07;;;5.30;99.90;4.90;97564.00;;;;5037036;28;20612;-73
2021/11/18 02:14:43;;;;;;;39.83;23.77;;;5.30;99.90;5.00;97555.00;;;;5046388;28;20204;-73
2021/11/18 02:17:32;;;;;;;39.93;24.20;;;5.30;99.90;5.20;97566.00;;;;5030474;28;20197;-73
2021/11/18 02:20:27;;;;;;;40.97;24.03;;;5.30;99.90;5.20;97561.00;;;;5031376;28;20722;-72
2021/11/18 02:23:20;;;;;;;41.77;22.47;;;5.30;99.90;5.10;97566.00;;;;5040490;28;20193;-74
2021/11/18 02:26:09;;;;;;;38.40;22.47;;;5.30;99.90;4.90;97573.00;;;;5045063;28;20200;-72
2021/11/18 02:29:04;;;;;;;43.03;22.57;;;5.20;99.90;5.00;97563.00;;;;5048775;28;20653;-73
2021/11/18 02:31:56;;;;;;;38.03;21.60;;;5.20;99.90;5.10;97575.00;;;;5037327;28;20220;-73
2021/11/18 02:34:51;;;;;;;48.23;24.87;;;5.20;99.90;5.20;97573.00;;;;5043285;28;20236;-73
2021/11/18 02:37:42;;;;;;;38.90;24.17;;;5.30;99.90;5.20;97566.00;;;;5045214;28;20204;-73
2021/11/18 02:40:32;;;;;;;40.30;23.40;;;5.30;99.90;5.20;97563.00;;;;5046408;28;20555;-74
2021/11/18 02:43:20;;;;;;;41.33;21.10;;;5.30;99.90;5.10;97571.00;;;;5048027;28;20212;-73
2021/11/18 02:46:10;;;;;;;41.00;22.33;;;5.30;99.90;5.10;97569.00;;;;5038936;28;20201;-74
2021/11/18 02:48:59;;;;;;;35.33;20.83;;;5.30;99.90;5.20;97564.00;;;;5046123;28;20204;-73
2021/11/18 02:51:48;;;;;;;40.57;23.03;;;5.30;99.90;5.10;97570.00;;;;5048417;28;20231;-74
2021/11/18 02:54:40;;;;;;;37.60;22.47;;;5.30;99.90;5.00;97574.00;;;;5035995;28;20203;-74
2021/11/18 02:57:29;;;;;;;40.97;22.83;;;5.20;99.90;4.90;97572.00;;;;5043448;28;20215;-73
2021/11/18 03:00:22;;;;;;;42.17;23.17;;;5.20;99.90;4.90;97574.00;;;;5048245;28;20541;-73
2021/11/18 03:03:11;;;;;;;38.43;21.73;;;5.20;99.90;4.90;97578.00;;;;5033409;28;20197;-74
2021/11/18 03:06:00;;;;;;;47.73;22.57;;;5.20;99.90;4.90;97573.00;;;;5037249;28;20205;-73
2021/11/18 03:08:49;;;;;;;41.87;22.13;;;5.10;99.90;4.80;97584.00;;;;5047049;28;20676;-73
2021/11/18 03:11:40;;;;;;;35.53;21.10;;;5.10;99.90;5.00;97582.00;;;;5039723;28;20228;-73
2021/11/18 03:14:30;;;;;;;38.67;22.70;;;5.10;99.90;5.10;97593.00;;;;5043380;28;20578;-72
2021/11/18 03:17:19;;;;;;;43.30;22.50;;;5.10;99.90;5.00;97590.00;;;;5037127;28;20331;-73
2021/11/18 03:20:12;;;;;;;41.00;23.70;;;5.10;99.90;5.00;97592.00;;;;5038221;28;20620;-73
2021/11/18 03:23:01;;;;;;;41.80;22.17;;;5.20;99.90;5.00;97599.00;;;;5047520;28;20483;-73
2021/11/18 03:25:52;;;;;;;40.10;22.30;;;5.20;99.90;5.10;97585.00;;;;5047972;28;20197;-73
2021/11/18 03:28:42;;;;;;;37.73;21.73;;;5.20;99.90;5.10;97599.00;;;;5046378;28;20689;-72
2021/11/18 03:31:31;;;;;;;39.53;21.90;;;5.10;99.90;5.10;97592.00;;;;5034859;28;20236;-72
2021/11/18 03:34:25;;;;;;;34.23;21.07;;;5.20;99.90;5.00;97597.00;;;;5044446;28;20596;-73
2021/11/18 03:37:14;;;;;;;31.77;19.90;;;5.20;99.90;5.10;97597.00;;;;5040690;28;20201;-72
2021/11/18 03:40:03;;;;;;;38.77;22.47;;;5.20;99.90;5.20;97604.00;;;;5042220;28;20209;-73
2021/11/18 03:42:53;;;;;;;40.20;21.83;;;5.20;99.90;5.00;97597.00;;;;5041436;28;20229;-73
2021/11/18 03:45:43;;;;;;;37.17;22.40;;;5.20;99.90;4.90;97609.00;;;;5036850;28;20208;-72
2021/11/18 03:48:34;;;;;;;39.00;22.63;;;5.20;99.90;4.90;97596.00;;;;5040140;28;20219;-73
2021/11/18 03:51:24;;;;;;;39.70;22.33;;;5.20;99.90;5.00;97598.00;;;;5048016;28;20577;-73
2021/11/18 03:54:17;;;;;;;36.93;22.40;;;5.20;99.90;5.10;97608.00;;;;5033528;28;20201;-73
2021/11/18 03:57:07;;;;;;;37.37;22.90;;;5.10;99.90;5.10;97603.00;;;;5042120;28;20208;-72
2021/11/18 03:59:56;;;;;;;46.10;23.07;;;5.20;99.90;5.10;97613.00;;;;5041861;28;20196;-73
2021/11/18 04:02:47;;;;;;;37.03;21.80;;;5.20;99.90;5.10;97611.00;;;;5047596;28;20235;-73
2021/11/18 04:05:36;;;;;;;32.90;19.33;;;5.20;99.90;4.90;97614.00;;;;5046907;28;20208;-74
2021/11/18 04:08:25;;;;;;;40.47;22.53;;;5.20;99.90;4.90;97604.00;;;;5046184;28;20205;-73
2021/11/18 04:11:14;;;;;;;37.07;20.77;;;5.20;99.90;5.00;97600.00;;;;5046507;28;20221;-73
2021/11/18 04:14:04;;;;;;;35.60;21.73;;;5.10;99.90;5.10;97610.00;;;;5036201;28;20197;-73
2021/11/18 04:16:53;;;;;;;46.50;26.57;;;5.20;99.90;5.10;97617.00;;;;5044478;28;20244;-73
2021/11/18 04:19:43;;;;;;;39.37;22.47;;;5.20;99.90;5.10;97612.00;;;;5045955;28;20212;-73
2021/11/18 04:22:32;;;;;;;37.77;21.47;;;5.20;99.90;5.10;97622.00;;;;5046077;28;20610;-72
2021/11/18 04:25:25;;;;;;;41.77;22.83;;;5.20;99.90;5.10;97611.00;;;;5047383;28;20204;-73
2021/11/18 04:28:14;;;;;;;37.70;20.57;;;5.20;99.90;5.00;97610.00;;;;5046690;28;20208;-74
2021/11/18 04:31:07;;;;;;;34.27;22.10;;;5.20;99.90;4.70;97615.00;;;;5045296;28;20239;-74
2021/11/18 04:33:56;;;;;;;32.07;19.63;;;5.10;99.90;4.70;97616.00;;;;5045174;28;20230;-75
2021/11/18 04:36:46;;;;;;;31.30;21.40;;;5.00;99.90;4.80;97624.00;;;;5036488;28;20212;-73
2021/11/18 04:39:36;;;;;;;45.10;22.43;;;5.00;99.90;4.90;97616.00;;;;5045896;28;20208;-73
2021/11/18 04:42:25;;;;;;;40.73;22.17;;;5.00;99.90;5.00;97624.00;;;;5046532;28;20225;-72
2021/11/18 04:45:20;;;;;;;37.83;20.90;;;5.10;99.90;4.90;97623.00;;;;5044695;28;20197;-73
2021/11/18 04:48:08;;;;;;;30.63;19.30;;;5.00;99.90;4.70;97631.00;;;;5034852;28;20208;-73
2021/11/18 04:50:57;;;;;;;35.00;23.30;;;5.00;99.90;4.70;97642.00;;;;5045878;28;20782;-73
2021/11/18 04:53:48;;;;;;;37.53;20.67;;;5.00;99.90;4.70;97634.00;;;;5039962;28;20219;-74
2021/11/18 04:56:38;;;;;;;36.90;21.07;;;5.00;99.90;4.70;97635.00;;;;5029388;28;20197;-73
2021/11/18 04:59:27;;;;;;;36.10;19.57;;;4.90;99.90;4.70;97639.00;;;;5033759;28;20193;-73
2021/11/18 05:02:16;;;;;;;39.40;23.70;;;4.90;99.90;4.60;97639.00;;;;5043845;28;20225;-72
2021/11/18 05:05:07;;;;;;;38.53;23.90;;;4.90;99.90;4.60;97645.00;;;;5046206;28;20695;-73
2021/11/18 05:07:56;;;;;;;38.67;21.20;;;4.90;99.90;4.60;97655.00;;;;5035482;28;20200;-72
2021/11/18 05:10:51;;;;;;;40.77;22.30;;;4.80;99.90;4.60;97645.00;;;;5043198;28;20602;-74
2021/11/18 05:13:40;;;;;;;40.53;21.90;;;4.80;99.90;4.50;97659.00;;;;5044550;28;20213;-73
2021/11/18 05:16:30;;;;;;;39.23;21.57;;;4.80;99.90;4.40;97653.00;;;;5037487;28;20189;-72
2021/11/18 05:19:25;;;;;;;36.20;21.43;;;4.70;99.90;4.30;97650.00;;;;5037131;28;20205;-71
2021/11/18 05:22:14;;;;;;;40.07;22.30;;;4.70;99.90;4.30;97657.00;;;;5043455;28;20221;-71
2021/11/18 05:25:04;;;;;;;36.70;21.37;;;4.60;99.90;4.40;97657.00;;;;5044775;28;20209;-72
2021/11/18 05:27:55;;;;;;;38.83;21.10;;;4.60;99.90;4.40;97658.00;;;;5044754;28;20216;-71
2021/11/18 05:30:45;;;;;;;37.50;19.83;;;4.60;99.90;4.30;97666.00;;;;5042143;28;20204;-70
2021/11/18 05:33:35;;;;;;;37.43;21.13;;;4.50;99.90;4.30;97674.00;;;;5038795;28;20686;-73
2021/11/18 05:36:24;;;;;;;35.40;20.40;;;4.50;99.90;4.10;97676.00;;;;5038983;28;20197;-72
2021/11/18 05:39:13;;;;;;;40.27;21.07;;;4.50;99.90;4.10;97677.00;;;;5044499;28;20201;-73
2021/11/18 05:42:03;;;;;;;39.07;22.03;;;4.50;99.90;4.00;97682.00;;;;5036106;28;20216;-72
2021/11/18 05:44:54;;;;;;;34.00;21.30;;;4.40;99.90;3.90;97680.00;;;;5035103;28;20585;-74
2021/11/18 05:47:44;;;;;;;36.37;18.30;;;4.40;99.90;3.80;97679.00;;;;5044327;28;20238;-74
2021/11/18 05:50:33;;;;;;;31.70;19.40;;;4.30;99.90;3.80;97684.00;;;;5044766;28;20223;-74
2021/11/18 05:53:26;;;;;;;42.13;20.13;;;4.30;99.90;3.90;97678.00;;;;5045338;28;20200;-74
2021/11/18 05:56:19;;;;;;;39.63;20.33;;;4.20;99.90;3.90;97679.00;;;;5044450;28;20204;-74
2021/11/18 05:59:08;;;;;;;37.77;20.37;;;4.20;99.90;3.80;97685.00;;;;5038732;28;20200;-73
2021/11/18 06:01:59;;;;;;;35.20;19.33;;;4.20;99.90;3.80;97706.00;;;;5043726;28;20223;-72
2021/11/18 06:04:48;;;;;;;36.23;19.37;;;4.20;99.90;3.80;97709.00;;;;5042800;28;20342;-73
2021/11/18 06:07:37;;;;;;;37.13;19.57;;;4.10;99.90;3.90;97712.00;;;;5048806;28;20196;-73
2021/11/18 06:10:29;;;;;;;33.57;20.37;;;4.10;99.90;4.00;97702.00;;;;5035310;28;20562;-73
2021/11/18 06:13:18;;;;;;;32.67;18.30;;;4.20;99.90;4.00;97696.00;;;;5038622;28;20200;-73
2021/11/18 06:16:07;;;;;;;36.07;20.17;;;4.20;99.90;4.00;97710.00;;;;5049301;28;20679;-74
2021/11/18 06:19:01;;;;;;;35.30;19.50;;;4.20;99.90;3.90;97720.00;;;;5049279;28;20207;-74
2021/11/18 06:21:53;;;;;;;36.13;20.77;;;4.20;99.90;3.70;97739.00;;;;5048102;28;20228;-75
2021/11/18 06:24:42;;;;;;;33.87;20.40;;;4.10;99.90;3.60;97734.00;;;;5048882;28;20306;-74
2021/11/18 06:27:31;;;;;;;40.97;22.00;;;4.10;99.90;3.60;97743.00;;;;5049030;28;20207;-74
2021/11/18 06:30:26;;;;;;;34.47;20.53;;;4.00;99.90;3.80;97746.00;;;;5048597;28;20197;-73
2021/11/18 06:33:16;;;;;;;34.90;19.53;;;4.00;99.90;3.90;97744.00;;;;5038019;28;20208;-73
2021/11/18 06:36:08;;;;;;;37.93;20.10;;;4.00;99.90;4.20;97748.00;;;;5039895;28;20200;-73
2021/11/18 06:38:57;;;;;;;39.03;20.23;;;4.10;99.90;4.10;97759.00;;;;5042669;28;20668;-73
2021/11/18 06:41:48;;;;;;;34.37;19.23;;;4.20;99.90;4.30;97767.00;;;;5039261;28;20213;-73
2021/11/18 06:44:39;;;;;;;37.43;19.70;;;4.30;99.90;4.30;97770.00;;;;5038930;28;20224;-73
2021/11/18 06:47:28;;;;;;;34.90;18.70;;;4.30;99.90;4.40;97768.00;;;;5036305;28;20211;-73
2021/11/18 06:50:18;;;;;;;38.47;18.53;;;4.40;99.90;4.60;97772.00;;;;5041263;28;20223;-72
2021/11/18 06:53:09;;;;;;;36.43;20.43;;;4.40;99.90;4.00;97766.00;;;;5047909;28;20201;-74
2021/11/18 06:55:59;;;;;;;38.93;20.40;;;4.40;99.90;3.90;97762.00;;;;5047384;28;20207;-74
2021/11/18 06:58:48;;;;;;;34.80;18.27;;;4.40;99.90;3.50;97779.00;;;;5048006;28;20890;-73
2021/11/18 07:01:37;;;;;;;35.07;18.67;;;4.20;99.90;3.20;97781.00;;;;5048488;28;20220;-75
2021/11/18 07:04:26;;;;;;;34.70;17.97;;;4.00;99.90;3.80;97791.00;;;;5048210;28;20227;-74
2021/11/18 07:07:15;;;;;;;42.07;21.47;;;4.00;99.90;4.10;97803.00;;;;5047963;28;20586;-73
2021/11/18 07:10:09;;;;;;;35.10;18.50;;;4.00;99.90;4.20;97794.00;;;;5048298;28;20201;-72
2021/11/18 07:12:59;;;;;;;33.37;19.40;;;4.20;99.90;4.40;97794.00;;;;5047644;28;20676;-72
2021/11/18 07:15:49;;;;;;;35.00;20.70;;;4.20;99.90;4.60;97791.00;;;;5047389;28;20212;-73
2021/11/18 07:18:37;;;;;;;30.67;18.17;;;4.30;99.90;4.60;97797.00;;;;5043124;28;20215;-74
2021/11/18 07:21:27;;;;;;;30.07;18.13;;;4.40;99.90;4.30;97784.00;;;;5038716;28;20216;-74
2021/11/18 07:24:17;;;;;;;33.27;18.97;;;4.50;99.90;4.40;97778.00;;;;5047605;28;20231;-73
2021/11/18 07:27:08;;;;;;;29.20;17.30;;;4.50;99.90;4.40;97796.00;;;;5046533;28;20204;-73
2021/11/18 07:29:57;;;;;;;32.27;17.93;;;4.50;99.90;4.40;97796.00;;;;5047053;28;20216;-73
2021/11/18 07:32:46;;;;;;;35.63;17.00;;;4.50;99.90;4.10;97786.00;;;;5046219;28;20235;-74
2021/11/18 07:35:35;;;;;;;32.97;16.10;;;4.50;99.90;4.30;97813.00;;;;5033670;28;20209;-74
2021/11/18 07:38:27;;;;;;;33.13;17.87;;;4.50;99.90;4.60;97804.00;;;;5047372;28;20216;-74
2021/11/18 07:41:16;;;;;;;37.23;20.00;;;4.50;99.90;4.50;97802.00;;;;5046341;28;20231;-74
2021/11/18 07:44:07;;;;;;;31.27;18.17;;;4.60;99.90;4.30;97805.00;;;;5046945;28;20521;-77
2021/11/18 07:47:16;;;;;;;26.57;16.17;;;4.60;99.90;4.50;97814.00;;;;5042592;28;20216;-75
2021/11/18 07:50:07;;;;;;;28.87;16.77;;;4.50;99.90;4.70;97819.00;;;;5047278;28;20193;-75
2021/11/18 07:52:56;;;;;;;36.27;20.83;;;4.70;99.90;4.60;97818.00;;;;5046660;28;20244;-74
2021/11/18 07:55:47;;;;;;;31.20;17.10;;;4.80;99.90;4.60;97832.00;;;;5047373;28;20887;-74
2021/11/18 07:58:37;;;;;;;34.60;17.83;;;4.80;99.90;4.40;97826.00;;;;5046219;28;20291;-75
2021/11/18 08:01:27;;;;;;;29.67;16.47;;;4.80;99.90;4.20;97822.00;;;;5046296;28;20232;-76
2021/11/18 08:04:16;;;;;;;29.33;16.17;;;4.70;99.90;4.30;97818.00;;;;5046734;28;20247;-74
2021/11/18 08:07:07;;;;;;;35.27;19.40;;;4.70;99.90;4.40;97817.00;;;;5045399;28;20208;-75
2021/11/18 08:09:55;;;;;;;32.83;18.80;;;4.70;99.90;4.80;97820.00;;;;5045839;28;20204;-74
2021/11/18 08:12:45;;;;;;;32.23;19.17;;;4.80;99.90;4.90;97816.00;;;;5034245;28;20232;-74
2021/11/18 08:15:34;;;;;;;33.17;18.73;;;4.90;99.90;5.20;97820.00;;;;5034539;28;20223;-74
2021/11/18 08:18:26;;;;;;;32.93;18.73;;;5.00;99.90;5.40;97825.00;;;;5034680;28;20201;-74
2021/11/18 08:21:16;;;;;;;34.43;16.93;;;5.20;99.90;5.10;97827.00;;;;5040505;28;20231;-74
2021/11/18 08:24:07;;;;;;;27.70;17.53;;;5.30;99.90;5.10;97825.00;;;;5046706;28;20233;-76
2021/11/18 08:26:57;;;;;;;29.30;17.03;;;5.40;99.90;5.50;97820.00;;;;5047755;28;20211;-75
2021/11/18 08:29:47;;;;;;;30.17;18.00;;;5.40;99.90;5.80;97819.00;;;;5047763;28;20208;-74
2021/11/18 08:32:39;;;;;;;31.70;17.03;;;5.60;99.90;5.90;97827.00;;;;5046759;28;20309;-76
2021/11/18 08:35:33;;;;;;;36.37;19.03;;;5.70;99.90;5.80;97815.00;;;;5035099;28;20220;-76
2021/11/18 08:38:23;;;;;;;32.73;18.90;;;5.90;99.90;5.50;97817.00;;;;5037518;28;20213;-75
2021/11/18 08:41:13;;;;;;;33.77;19.10;;;5.90;99.90;5.30;97819.00;;;;5046177;28;20607;-75
2021/11/18 08:44:02;;;;;;;31.17;17.57;;;5.90;99.90;5.40;97830.00;;;;5047190;28;20672;-74
2021/11/18 08:46:52;;;;;;;35.80;18.63;;;5.90;99.90;5.80;97836.00;;;;5045859;28;20203;-74
2021/11/18 08:49:41;;;;;;;27.00;17.83;;;5.70;99.90;6.30;97838.00;;;;5045539;28;20234;-74
2021/11/18 08:52:35;;;;;;;34.57;17.53;;;6.00;99.90;6.70;97839.00;;;;5044988;28;20871;-74
2021/11/18 08:55:28;;;;;;;26.17;17.93;;;6.20;99.90;7.10;97838.00;;;;5045944;28;20220;-74
2021/11/18 08:58:21;;;;;;;29.17;17.70;;;6.40;99.90;7.20;97849.00;;;;5046580;28;20215;-74
2021/11/18 09:01:15;;;;;;;33.73;18.67;;;6.70;99.90;7.50;97843.00;;;;5045207;28;20220;-74
2021/11/18 09:04:07;;;;;;;27.20;16.50;;;7.00;99.90;7.80;97844.00;;;;5045478;28;20227;-74
2021/11/18 09:06:56;;;;;;;25.03;16.33;;;7.20;99.90;8.10;97854.00;;;;5042334;28;20209;-73
2021/11/18 09:09:46;;;;;;;25.20;15.93;;;7.50;99.90;8.40;97857.00;;;;5033929;28;20196;-74
2021/11/18 09:12:36;;;;;;;27.57;16.07;;;7.70;99.90;8.70;97859.00;;;;5032097;28;20228;-72
2021/11/18 09:15:28;;;;;;;25.50;17.00;;;7.90;99.90;8.40;97866.00;;;;5035548;28;20625;-75
2021/11/18 09:18:19;;;;;;;26.97;15.20;;;8.10;99.90;8.50;97859.00;;;;5038194;28;20209;-74
2021/11/18 09:21:09;;;;;;;26.07;15.87;;;8.10;99.90;8.50;97857.00;;;;5037088;28;20217;-74
2021/11/18 09:24:04;;;;;;;29.17;16.33;;;8.20;99.90;8.60;97869.00;;;;5034818;28;20522;-74
2021/11/18 09:26:58;;;;;;;28.70;15.90;;;8.30;99.90;8.70;97862.00;;;;5034990;28;20205;-74
2021/11/18 09:29:49;;;;;;;26.80;16.57;;;8.50;99.90;8.90;97863.00;;;;5036975;28;20197;-74
2021/11/18 09:32:39;;;;;;;24.33;15.30;;;8.40;99.90;9.00;97875.00;;;;5036587;28;20217;-75
2021/11/18 09:35:32;;;;;;;24.03;14.13;;;8.50;99.90;9.20;97875.00;;;;5034248;28;20681;-74
2021/11/18 09:38:24;;;;;;;27.27;16.00;;;8.70;99.90;9.40;97875.00;;;;5041251;28;20216;-73
2021/11/18 09:41:36;;;;;;;24.17;15.33;;;8.80;99.90;9.40;97879.00;;;;5033516;28;20232;-73
2021/11/18 09:45:04;;;;;;;28.13;15.80;;;8.90;99.90;9.60;97868.00;;;;5035043;28;20217;-74
2021/11/18 09:48:50;;;;;;;26.07;15.67;;;9.10;99.90;9.70;97869.00;;;;5038303;28;20687;-73
2021/11/18 09:51:52;;;;;;;21.37;13.17;;;9.20;99.90;9.90;97868.00;;;;5027067;28;20234;-73
2021/11/18 09:54:54;;;;;;;20.97;13.70;;;9.40;99.90;10.20;97866.00;;;;5034511;28;20205;-74
2021/11/18 09:58:08;;;;;;;24.23;13.83;;;9.50;99.90;10.40;97857.00;;;;5038798;28;20213;-73
2021/11/18 10:01:34;;;;;;;21.20;14.07;;;9.70;99.90;10.80;97855.00;;;;5040788;28;20217;-73
2021/11/18 10:04:36;;;;;;;22.33;13.87;;;9.90;99.90;11.10;97850.00;;;;5035802;28;20211;-73
2021/11/18 10:07:32;;;;;;;20.23;13.67;;;10.20;99.90;11.30;97846.00;;;;5033345;28;20690;-73
2021/11/18 10:10:29;;;;;;;22.47;13.40;;;10.40;99.90;11.70;97848.00;;;;5036008;28;20587;-74
2021/11/18 10:13:49;;;;;;;20.30;13.33;;;10.80;99.90;12.50;97841.00;;;;5029793;28;20185;-75
2021/11/18 10:16:50;;;;;;;17.67;13.17;;;11.40;99.90;12.80;97842.00;;;;5037117;28;20204;-75
2021/11/18 10:19:45;;;;;;;15.57;12.07;;;12.10;99.90;13.60;97834.00;;;;5043488;28;20589;-74
2021/11/18 10:22:42;;;;;;;17.03;11.00;;;12.70;99.90;13.30;97821.00;;;;5031505;28;20225;-72
2021/11/18 10:25:37;;;;;;;18.00;12.47;;;13.40;99.90;13.50;97822.00;;;;5037378;28;20218;-74
2021/11/18 10:28:44;;;;;;;17.17;11.33;;;13.70;99.90;13.50;97824.00;;;;5032646;28;20209;-74
2021/11/18 10:31:50;;;;;;;16.43;11.40;;;13.70;99.90;13.60;97815.00;;;;5044629;28;20227;-75
2021/11/18 10:34:49;;;;;;;15.90;11.50;;;13.70;99.90;14.20;97828.00;;;;5033319;28;20319;-74
2021/11/18 10:37:42;;;;;;;15.80;11.43;;;13.90;99.90;13.50;97826.00;;;;5035132;28;20201;-74
2021/11/18 10:40:32;;;;;;;17.13;11.67;;;14.20;99.90;13.80;97827.00;;;;5032285;28;20715;-73
2021/11/18 10:43:21;;;;;;;18.07;12.10;;;14.10;99.90;13.70;97816.00;;;;5042006;28;20212;-73
2021/11/18 10:46:25;;;;;;;12.77;10.17;;;14.00;99.90;13.80;97822.00;;;;5044990;28;20288;-74
2021/11/18 10:49:18;;;;;;;13.87;10.30;;;13.90;99.90;13.70;97827.00;;;;5048873;28;20214;-73
2021/11/18 10:52:20;;;;;;;14.57;10.03;;;13.80;99.90;14.10;97818.00;;;;5045550;28;20221;-73
2021/11/18 10:55:15;;;;;;;14.13;9.03;;;13.90;99.90;14.40;97822.00;;;;5046943;28;20683;-74
2021/11/18 10:58:09;;;;;;;14.10;10.27;;;14.10;99.90;13.90;97824.00;;;;5046910;28;20219;-73
2021/11/18 11:01:04;;;;;;;16.57;10.93;;;14.20;99.90;14.30;97814.00;;;;5047577;28;20227;-73
2021/11/18 11:03:56;;;;;;;11.67;8.63;;;14.40;99.90;14.10;97812.00;;;;5047231;28;20211;-74
2021/11/18 11:06:54;;;;;;;16.73;10.57;;;14.60;99.90;14.00;97815.00;;;;5041236;28;20227;-77
2021/11/18 11:09:47;;;;;;;11.97;8.63;;;14.50;99.70;13.90;97794.00;;;;5045074;28;20208;-77
2021/11/18 11:12:42;;;;;;;10.87;8.50;;;14.60;98.00;13.40;97805.00;;;;5046522;28;20309;-75
2021/11/18 11:16:09;;;;;;;11.43;8.40;;;14.60;97.10;14.20;97811.00;;;;5033198;28;20608;-73
2021/11/18 11:19:06;;;;;;;10.17;7.77;;;14.50;97.50;14.20;97817.00;;;;5005960;28;20248;-73
2021/11/18 11:22:04;;;;;;;8.57;6.60;;;14.60;97.10;14.70;97799.00;;;;5041846;28;20240;-75
2021/11/18 11:25:33;;;;;;;9.87;7.13;;;14.70;95.60;15.50;97788.00;;;;5040605;28;20200;-73
2021/11/18 11:28:59;;;;;;;11.50;7.03;;;15.10;95.10;16.90;97789.00;;;;5034085;28;20411;-75
2021/11/18 11:31:57;;;;;;;9.80;7.13;;;15.90;95.40;16.00;97776.00;;;;5049118;28;20247;-76
2021/11/18 11:35:04;;;;;;;8.60;6.70;;;16.80;89.70;14.20;97766.00;;;;5032717;28;20202;-76
2021/11/18 11:38:41;;;;;;;10.70;7.60;;;16.80;84.40;16.30;97793.00;;;;5045224;28;20409;-74
2021/11/18 11:42:14;;;;;;;10.73;8.35;;;16.50;86.60;16.80;97782.00;;;;5035841;28;20390;-77
2021/11/18 11:45:18;;;;;;;10.53;8.30;;;16.60;85.70;16.50;97772.00;;;;5051253;28;20208;-76
2021/11/18 11:48:54;;;;;;;10.00;7.10;;;17.10;82.10;17.30;97757.00;;;;5050280;28;20214;-75
2021/11/18 11:52:23;;;;;;;12.17;6.73;;;17.50;81.50;17.00;97766.00;;;;5059712;28;20619;-78
2021/11/18 11:55:33;;;;;;;11.73;7.17;;;17.90;75.80;17.00;97750.00;;;;5051283;28;20210;-77
2021/11/18 11:58:27;;;;;;;9.53;6.53;;;18.30;74.30;17.60;97760.00;;;;5043694;28;20209;-76
2021/11/18 12:01:25;;;;;;;8.03;5.87;;;18.40;72.30;18.30;97759.00;;;;5046368;28;20226;-75
2021/11/18 12:04:25;;;;;;;8.20;6.33;;;18.70;71.20;18.80;97751.00;;;;5035584;28;20425;-76
2021/11/18 12:07:24;;;;;;;7.37;5.93;;;19.00;70.70;17.90;97774.00;;;;5048445;28;20479;-75
2021/11/18 12:10:28;;;;;;;8.17;6.60;;;19.00;67.60;18.40;97749.00;;;;5049993;28;20213;-78
2021/11/18 12:13:35;;;;;;;7.20;5.80;;;19.00;67.70;18.70;97737.00;;;;5039687;28;20667;-76
2021/11/18 12:16:30;;;;;;;8.70;6.20;;;19.30;68.40;19.40;97736.00;;;;5038404;28;20203;-76
2021/11/18 12:19:41;;;;;;;10.70;5.83;;;19.60;66.10;20.10;97740.00;;;;5042641;28;20221;-77
2021/11/18 12:22:55;;;;;;;10.10;6.27;;;20.10;63.30;20.10;97746.00;;;;5043346;28;20232;-76
2021/11/18 12:26:13;;;;;;;6.77;4.97;;;20.30;63.70;19.50;97738.00;;;;5045691;28;20220;-77
2021/11/18 12:29:23;;;;;;;7.33;5.57;;;20.40;61.50;18.80;97786.00;;;;5057320;28;20201;-76
2021/11/18 12:32:34;;;;;;;7.27;5.30;;;20.00;61.20;17.60;97787.00;;;;5048278;28;20228;-77
2021/11/18 12:35:50;;;;;;;7.93;5.90;;;19.00;63.30;16.20;97783.00;;;;5028872;28;20259;-78
2021/11/18 12:38:44;;;;;;;8.33;4.97;;;18.00;64.80;15.50;97775.00;;;;5042423;28;20205;-76
2021/11/18 12:41:49;;;;;;;6.63;4.70;;;17.10;66.00;14.80;97775.00;;;;5053623;28;20240;-77
2021/11/18 12:44:55;;;;;;;9.20;5.83;;;16.30;68.40;14.60;97774.00;;;;5039708;28;20217;-79
2021/11/18 12:48:13;;;;;;;6.30;5.57;;;15.60;70.00;14.40;97774.00;;;;5052425;28;20715;-78
2021/11/18 12:51:23;;;;;;;7.27;4.97;;;15.00;71.60;13.90;97769.00;;;;5037045;28;20217;-78